createdAt,value
2019-05-19T00:01:09.144Z,12.47
2019-05-19T00:03:38.552Z,12.53
2019-05-19T00:06:07.894Z,11.70
2019-05-19T00:08:37.273Z,11.90
2019-05-19T00:11:06.580Z,10.37
2019-05-19T00:13:35.927Z,11.33
2019-05-19T00:16:05.337Z,11.33
2019-05-19T00:18:34.709Z,12.70
2019-05-19T00:21:04.024Z,12.13
2019-05-19T00:23:33.376Z,11.23
2019-05-19T00:26:02.712Z,12.47
2019-05-19T00:28:32.113Z,13.53
2019-05-19T00:31:01.405Z,12.53
2019-05-19T00:33:30.986Z,13.40
2019-05-19T00:36:00.325Z,12.63
2019-05-19T00:38:29.675Z,13.63
2019-05-19T00:40:59.015Z,14.27
2019-05-19T00:43:28.365Z,13.60
2019-05-19T00:45:57.706Z,12.50
2019-05-19T00:48:27.124Z,12.40
2019-05-19T00:50:56.466Z,13.60
2019-05-19T00:53:25.827Z,13.50
2019-05-19T00:55:55.717Z,12.90
2019-05-19T00:58:27.161Z,12.40
2019-05-19T01:00:56.494Z,12.70
2019-05-19T01:03:25.837Z,13.13
2019-05-19T01:05:55.418Z,12.47
2019-05-19T01:08:24.762Z,11.70
2019-05-19T01:10:54.108Z,12.70
2019-05-19T01:13:23.460Z,13.33
2019-05-19T01:15:52.816Z,12.50
2019-05-19T01:18:22.172Z,12.90
2019-05-19T01:20:51.518Z,12.20
2019-05-19T01:23:20.859Z,12.60
2019-05-19T01:25:50.211Z,12.80
2019-05-19T01:28:19.552Z,14.03
2019-05-19T01:30:48.901Z,12.77
2019-05-19T01:33:18.243Z,14.40
2019-05-19T01:35:47.598Z,13.30
2019-05-19T01:38:16.933Z,15.60
2019-05-19T01:40:46.284Z,13.80
2019-05-19T01:43:15.632Z,13.80
2019-05-19T01:45:45.006Z,13.90
2019-05-19T01:48:14.344Z,13.17
2019-05-19T01:50:43.688Z,14.07
2019-05-19T01:53:13.263Z,14.10
2019-05-19T01:55:42.620Z,14.17
2019-05-19T01:58:11.961Z,13.70
2019-05-19T02:00:41.303Z,15.53
2019-05-19T02:03:10.656Z,15.73
2019-05-19T02:05:39.923Z,14.90
2019-05-19T02:08:09.267Z,14.67
2019-05-19T02:10:38.629Z,13.97
2019-05-19T02:13:07.967Z,13.30
2019-05-19T02:15:37.307Z,14.47
2019-05-19T02:18:06.657Z,13.50
2019-05-19T02:20:36.002Z,14.37
2019-05-19T02:23:05.355Z,14.40
2019-05-19T02:25:34.771Z,14.70
2019-05-19T02:28:04.188Z,14.00
2019-05-19T02:30:33.537Z,15.27
2019-05-19T02:33:02.883Z,14.93
2019-05-19T02:35:32.233Z,13.43
2019-05-19T02:38:01.568Z,14.67
2019-05-19T02:40:33.632Z,15.30
2019-05-19T02:43:03.733Z,16.23
2019-05-19T02:45:34.184Z,14.60
2019-05-19T02:48:04.280Z,15.47
2019-05-19T02:50:50.876Z,14.77
2019-05-19T02:53:08.648Z,15.70
2019-05-19T02:55:39.032Z,16.03
2019-05-19T02:58:09.280Z,15.87
2019-05-19T03:00:41.415Z,14.80
2019-05-19T03:03:11.169Z,14.27
2019-05-19T03:05:40.444Z,16.07
2019-05-19T03:08:09.779Z,15.53
2019-05-19T03:10:39.132Z,15.70
2019-05-19T03:13:08.471Z,15.93
2019-05-19T03:15:37.824Z,16.87
2019-05-19T03:18:07.401Z,17.07
2019-05-19T03:20:36.744Z,17.80
2019-05-19T03:23:06.102Z,16.90
2019-05-19T03:25:35.438Z,18.03
2019-05-19T03:28:04.968Z,17.53
2019-05-19T03:30:53.788Z,17.47
2019-05-19T03:33:24.766Z,17.50
2019-05-19T03:35:54.114Z,16.67
2019-05-19T03:38:23.459Z,16.90
2019-05-19T03:40:52.805Z,17.50
2019-05-19T03:43:22.155Z,17.50
2019-05-19T03:45:51.736Z,17.27
2019-05-19T03:48:21.071Z,17.30
2019-05-19T03:50:50.426Z,18.37
2019-05-19T03:53:19.764Z,18.57
2019-05-19T03:55:49.117Z,18.60
2019-05-19T03:58:18.454Z,18.13
2019-05-19T04:00:47.794Z,19.10
2019-05-19T04:03:17.361Z,18.60
2019-05-19T04:05:46.703Z,19.83
2019-05-19T04:08:16.050Z,19.10
2019-05-19T04:10:45.386Z,18.80
2019-05-19T04:13:14.728Z,19.27
2019-05-19T04:15:46.033Z,18.20
2019-05-19T04:18:15.367Z,17.80
2019-05-19T04:20:44.707Z,16.30
2019-05-19T04:23:14.056Z,18.00
2019-05-19T04:25:43.400Z,17.70
2019-05-19T04:28:12.741Z,16.00
2019-05-19T04:30:42.113Z,16.20
2019-05-19T04:33:11.421Z,15.33
2019-05-19T04:35:40.780Z,15.70
2019-05-19T04:38:10.178Z,15.87
2019-05-19T04:40:39.524Z,16.37
2019-05-19T04:43:08.874Z,15.90
2019-05-19T04:45:38.208Z,17.03
2019-05-19T04:48:09.625Z,16.90
2019-05-19T04:50:38.664Z,16.90
2019-05-19T04:53:08.034Z,16.80
2019-05-19T04:55:37.347Z,19.20
2019-05-19T04:58:06.697Z,19.40
2019-05-19T05:00:36.110Z,19.80
2019-05-19T05:03:05.455Z,18.80
2019-05-19T05:05:34.887Z,19.77
2019-05-19T05:08:04.234Z,22.30
2019-05-19T05:10:33.605Z,23.17
2019-05-19T05:13:02.973Z,24.30
2019-05-19T05:15:32.308Z,21.43
2019-05-19T05:18:01.685Z,23.57
2019-05-19T05:20:31.016Z,24.50
2019-05-19T05:23:00.902Z,24.30
2019-05-19T05:25:30.247Z,23.70
2019-05-19T05:27:59.597Z,23.23
2019-05-19T05:32:49.357Z,24.27
2019-05-19T05:35:18.762Z,22.60
2019-05-19T05:41:02.320Z,21.90
2019-05-19T05:43:44.314Z,24.47
2019-05-19T05:46:25.456Z,24.50
2019-05-19T05:48:54.811Z,22.30
2019-05-19T05:51:24.161Z,24.57
2019-05-19T05:53:53.749Z,24.17
2019-05-19T05:56:23.098Z,25.10
2019-05-19T05:59:05.055Z,24.50
2019-05-19T06:01:34.397Z,26.13
2019-05-19T06:04:03.803Z,24.47
2019-05-19T06:06:33.152Z,25.23
2019-05-19T06:11:58.312Z,24.63
2019-05-19T06:14:27.661Z,27.03
2019-05-19T06:17:09.165Z,26.73
2019-05-19T06:19:38.515Z,25.73
2019-05-19T06:22:07.853Z,24.23
2019-05-19T06:24:37.121Z,26.33
2019-05-19T06:27:06.464Z,25.67
2019-05-19T06:29:35.802Z,25.07
2019-05-19T06:32:24.405Z,25.87
2019-05-19T06:34:53.741Z,26.47
2019-05-19T06:37:23.112Z,26.20
2019-05-19T06:39:52.445Z,26.73
2019-05-19T06:42:21.787Z,31.43
2019-05-19T06:44:51.136Z,28.40
2019-05-19T06:47:20.488Z,27.73
2019-05-19T06:49:50.139Z,30.70
2019-05-19T06:52:38.836Z,31.97
2019-05-19T06:55:48.085Z,32.27
2019-05-19T06:58:17.432Z,30.90
2019-05-19T07:00:46.773Z,30.67
2019-05-19T07:03:16.440Z,31.60
2019-05-19T07:05:45.781Z,31.30
2019-05-19T07:08:26.845Z,28.10
2019-05-19T07:10:56.184Z,29.63
2019-05-19T07:13:25.517Z,29.00
2019-05-19T07:15:54.871Z,26.60
2019-05-19T07:18:24.209Z,26.93
2019-05-19T07:20:53.546Z,27.30
2019-05-19T07:23:42.232Z,26.43
2019-05-19T07:26:11.569Z,26.27
2019-05-19T07:28:41.188Z,26.07
2019-05-19T07:31:10.540Z,25.40
2019-05-19T07:33:39.876Z,25.60
2019-05-19T07:36:09.217Z,26.20
2019-05-19T07:38:38.563Z,24.97
2019-05-19T07:41:08.153Z,26.00
2019-05-19T07:43:37.490Z,26.27
2019-05-19T07:46:06.860Z,25.47
2019-05-19T07:48:48.160Z,29.13
2019-05-19T07:51:17.510Z,23.53
2019-05-19T07:53:47.085Z,21.77
2019-05-19T07:56:16.429Z,20.73
2019-05-19T07:58:45.780Z,24.30
2019-05-19T08:01:15.114Z,23.27
2019-05-19T08:03:44.454Z,24.53
2019-05-19T08:06:13.805Z,25.50
2019-05-19T08:08:48.504Z,26.47
2019-05-19T08:11:18.085Z,23.83
2019-05-19T08:13:47.427Z,26.20
2019-05-19T08:16:28.645Z,21.77
2019-05-19T08:18:57.973Z,20.73
2019-05-19T08:21:27.338Z,21.30
2019-05-19T08:24:00.763Z,20.77
2019-05-19T08:26:46.838Z,19.30
2019-05-19T08:29:16.182Z,20.80
2019-05-19T08:31:45.535Z,24.60
2019-05-19T08:34:14.901Z,24.10
2019-05-19T08:36:44.241Z,21.50
2019-05-19T08:39:13.588Z,22.27
2019-05-19T08:41:42.921Z,20.30
2019-05-19T08:44:12.274Z,22.80
2019-05-19T08:46:41.610Z,19.97
2019-05-19T08:49:10.947Z,20.63
2019-05-19T08:51:40.332Z,18.37
2019-05-19T08:54:14.887Z,18.93
2019-05-19T08:56:45.852Z,18.50
2019-05-19T08:59:15.182Z,20.93
2019-05-19T09:02:03.611Z,18.03
2019-05-19T09:04:32.954Z,17.63
2019-05-19T09:07:02.279Z,17.27
2019-05-19T09:09:37.300Z,16.63
2019-05-19T09:12:06.634Z,17.97
2019-05-19T09:14:35.974Z,18.93
2019-05-19T09:17:05.324Z,18.43
2019-05-19T09:19:34.655Z,17.07
2019-05-19T09:22:04.061Z,16.13
2019-05-19T09:24:52.488Z,18.87
2019-05-19T09:27:21.823Z,18.47
2019-05-19T09:29:51.157Z,19.60
2019-05-19T09:32:20.487Z,19.27
2019-05-19T09:34:49.823Z,17.83
2019-05-19T09:37:19.160Z,18.30
2019-05-19T09:39:48.507Z,17.63
2019-05-19T09:42:17.806Z,17.13
2019-05-19T09:44:47.108Z,20.77
2019-05-19T09:47:35.819Z,20.60
2019-05-19T09:50:24.530Z,18.80
2019-05-19T09:52:53.878Z,17.50
2019-05-19T09:55:23.332Z,18.97
2019-05-19T09:57:52.630Z,17.50
2019-05-19T10:01:01.877Z,17.30
2019-05-19T10:03:31.223Z,17.90
2019-05-19T10:06:06.360Z,16.47
2019-05-19T10:14:39.703Z,18.80
2019-05-19T10:17:09.050Z,17.67
2019-05-19T10:19:38.453Z,14.50
2019-05-19T10:22:07.855Z,15.13
2019-05-19T10:24:37.199Z,15.80
2019-05-19T10:27:06.550Z,13.97
2019-05-19T10:29:35.962Z,13.87
2019-05-19T10:32:05.365Z,13.17
2019-05-19T10:34:45.744Z,12.97
2019-05-19T10:37:27.242Z,14.10
2019-05-19T10:40:45.344Z,15.90
2019-05-19T10:43:14.680Z,15.23
2019-05-19T10:48:24.713Z,15.47
2019-05-19T10:50:54.058Z,15.07
2019-05-19T10:53:23.467Z,16.00
2019-05-19T10:55:52.829Z,15.00
2019-05-19T10:58:22.161Z,15.10
2019-05-19T11:00:51.502Z,15.23
2019-05-19T11:03:21.168Z,14.73
2019-05-19T11:05:50.506Z,14.70
2019-05-19T11:08:19.832Z,14.80
2019-05-19T11:10:49.173Z,14.90
2019-05-19T11:13:24.559Z,15.40
2019-05-19T11:15:53.910Z,15.17
2019-05-19T11:18:23.261Z,15.20
2019-05-19T11:20:52.625Z,15.97
2019-05-19T11:23:21.959Z,16.23
2019-05-19T11:25:51.936Z,14.33
2019-05-19T11:28:27.930Z,14.33
2019-05-19T11:30:57.271Z,14.13
2019-05-19T11:33:26.534Z,15.30
2019-05-19T11:35:55.870Z,14.40
2019-05-19T11:38:37.051Z,15.33
2019-05-19T11:41:06.388Z,14.63
2019-05-19T11:43:35.753Z,12.60
2019-05-19T11:46:05.380Z,13.30
2019-05-19T11:48:34.721Z,13.60
2019-05-19T11:51:04.065Z,13.67
2019-05-19T11:53:33.429Z,13.07
2019-05-19T11:56:07.165Z,13.20
2019-05-19T11:58:43.247Z,11.90
2019-05-19T12:01:12.663Z,13.33
2019-05-19T12:03:41.989Z,13.33
2019-05-19T12:06:11.325Z,12.57
2019-05-19T12:08:40.974Z,12.47
2019-05-19T12:11:29.572Z,13.27
2019-05-19T12:13:58.992Z,13.53
2019-05-19T12:16:28.295Z,12.57
2019-05-19T12:18:57.720Z,12.67
2019-05-19T12:21:46.692Z,11.97
2019-05-19T12:24:16.024Z,11.63
2019-05-19T12:26:45.378Z,13.07
2019-05-19T12:29:14.707Z,14.30
2019-05-19T12:31:44.035Z,12.33
2019-05-19T12:34:13.443Z,11.93
2019-05-19T12:36:42.784Z,10.50
2019-05-19T12:39:12.128Z,11.00
2019-05-19T12:41:41.463Z,9.53
2019-05-19T12:44:10.818Z,10.77
2019-05-19T12:46:40.134Z,12.03
2019-05-19T12:49:09.468Z,11.23
2019-05-19T12:51:38.988Z,10.47
2019-05-19T12:54:08.319Z,11.87
2019-05-19T12:56:39.986Z,12.43
2019-05-19T12:59:27.819Z,11.10
2019-05-19T13:01:57.230Z,11.00
2019-05-19T13:04:26.584Z,11.57
2019-05-19T13:06:55.914Z,11.13
2019-05-19T13:09:25.261Z,10.30
2019-05-19T13:11:54.586Z,10.67
2019-05-19T13:14:23.939Z,10.67
2019-05-19T13:16:53.344Z,11.80
2019-05-19T13:19:22.660Z,10.10
2019-05-19T13:21:51.971Z,11.20
2019-05-19T13:24:21.312Z,11.20
2019-05-19T13:26:56.556Z,11.50
2019-05-19T13:29:31.313Z,11.27
2019-05-19T13:32:00.991Z,10.53
2019-05-19T13:34:30.333Z,11.80
2019-05-19T13:36:59.677Z,11.83
2019-05-19T13:39:29.010Z,11.90
2019-05-19T13:41:58.348Z,11.30
2019-05-19T13:44:27.677Z,13.00
2019-05-19T13:46:57.019Z,10.77
2019-05-19T13:49:26.418Z,10.23
2019-05-19T13:52:08.220Z,12.27
2019-05-19T13:54:37.863Z,11.77
2019-05-19T13:57:14.286Z,11.33
2019-05-19T13:59:43.625Z,11.53
2019-05-19T14:02:12.992Z,11.77
2019-05-19T14:04:54.835Z,11.57
2019-05-19T14:07:24.169Z,11.03
2019-05-19T14:09:53.516Z,12.33
2019-05-19T14:12:22.853Z,11.97
2019-05-19T14:14:57.556Z,11.33
2019-05-19T14:17:26.902Z,11.20
2019-05-19T14:19:56.243Z,10.80
2019-05-19T14:22:25.578Z,11.47
2019-05-19T14:24:54.913Z,11.63
2019-05-19T14:27:30.058Z,10.90
2019-05-19T14:30:14.515Z,11.37
2019-05-19T14:32:44.107Z,11.60
2019-05-19T14:38:28.064Z,12.80
2019-05-19T14:40:57.398Z,11.90
2019-05-19T14:46:22.082Z,10.70
2019-05-19T14:48:51.430Z,10.93
2019-05-19T14:51:20.763Z,11.47
2019-05-19T14:53:50.151Z,10.70
2019-05-19T14:56:38.587Z,10.87
2019-05-19T14:59:07.920Z,11.83
2019-05-19T15:01:37.260Z,11.03
2019-05-19T15:04:06.598Z,10.93
2019-05-19T15:06:35.930Z,11.93
2019-05-19T15:09:45.193Z,11.10
2019-05-19T15:12:14.561Z,10.67
2019-05-19T15:14:43.886Z,10.40
2019-05-19T15:17:13.231Z,10.67
2019-05-19T15:19:42.560Z,11.10
2019-05-19T15:22:11.917Z,11.47
2019-05-19T15:24:41.252Z,9.60
2019-05-19T15:27:10.620Z,10.67
2019-05-19T15:29:39.930Z,11.80
2019-05-19T15:32:09.261Z,10.87
2019-05-19T15:34:38.606Z,9.80
2019-05-19T15:37:07.940Z,11.13
2019-05-19T15:39:56.633Z,11.17
2019-05-19T15:42:45.072Z,10.50
2019-05-19T15:45:14.553Z,10.00
2019-05-19T15:47:43.897Z,10.10
2019-05-19T15:50:13.476Z,10.13
2019-05-19T15:52:42.817Z,9.90
2019-05-19T15:58:32.667Z,9.30
2019-05-19T16:01:02.017Z,9.40
2019-05-19T16:03:31.351Z,10.67
2019-05-19T16:06:00.715Z,9.10
2019-05-19T16:08:30.027Z,8.50
2019-05-19T16:10:59.362Z,9.77
2019-05-19T16:13:29.042Z,9.13
2019-05-19T16:15:58.684Z,9.30
2019-05-19T16:18:28.003Z,9.87
2019-05-19T16:20:57.415Z,10.27
2019-05-19T16:23:32.642Z,9.43
2019-05-19T16:26:01.940Z,10.63
2019-05-19T16:28:31.321Z,11.10
2019-05-19T16:31:00.625Z,13.10
2019-05-19T16:33:29.963Z,11.63
2019-05-19T16:35:59.578Z,10.67
2019-05-19T16:38:28.927Z,11.07
2019-05-19T16:40:58.258Z,11.60
2019-05-19T16:43:27.602Z,10.60
2019-05-19T16:45:57.055Z,11.50
2019-05-19T16:48:26.393Z,11.97
2019-05-19T16:50:55.736Z,12.00
2019-05-19T16:53:25.106Z,11.23
2019-05-19T16:55:54.446Z,11.30
2019-05-19T16:58:23.784Z,10.97
2019-05-19T17:00:53.134Z,10.50
2019-05-19T17:03:22.478Z,12.37
2019-05-19T17:05:52.056Z,10.83
2019-05-19T17:08:21.396Z,12.10
2019-05-19T17:10:50.738Z,12.13
2019-05-19T17:13:20.070Z,12.10
2019-05-19T17:15:49.423Z,11.70
2019-05-19T17:18:18.758Z,11.57
2019-05-19T17:20:48.106Z,11.53
2019-05-19T17:23:17.454Z,11.77
2019-05-19T17:25:47.017Z,11.70
2019-05-19T17:28:16.356Z,10.73
2019-05-19T17:30:45.715Z,10.80
2019-05-19T17:33:15.044Z,11.30
2019-05-19T17:35:44.380Z,12.50
2019-05-19T17:38:13.730Z,11.83
2019-05-19T17:40:43.063Z,12.00
2019-05-19T17:43:12.397Z,12.00
2019-05-19T17:45:41.745Z,12.60
2019-05-19T17:48:25.371Z,12.57
2019-05-19T17:50:47.880Z,12.60
2019-05-19T17:53:17.275Z,14.07
2019-05-19T18:01:51.071Z,15.30
2019-05-19T18:04:20.405Z,13.57
2019-05-19T18:06:49.752Z,14.03
2019-05-19T18:09:19.100Z,13.40
2019-05-19T18:11:48.455Z,13.97
2019-05-19T18:14:17.949Z,13.90
2019-05-19T18:16:47.280Z,15.07
2019-05-19T18:19:16.616Z,13.73
2019-05-19T18:21:46.003Z,14.80
2019-05-19T18:24:15.340Z,13.27
2019-05-19T18:30:44.938Z,13.30
2019-05-19T18:36:23.379Z,13.77
2019-05-19T18:38:52.718Z,14.60
2019-05-19T18:41:22.079Z,13.83
2019-05-19T18:43:51.411Z,14.47
2019-05-19T18:46:20.765Z,14.53
2019-05-19T18:49:09.545Z,12.90
2019-05-19T18:51:38.884Z,14.20
2019-05-19T18:54:08.240Z,12.67
2019-05-19T18:56:37.560Z,12.47
2019-05-19T18:59:06.901Z,13.10
2019-05-19T19:01:36.316Z,13.40
2019-05-19T19:04:05.817Z,13.03
2019-05-19T19:06:35.237Z,13.07
2019-05-19T19:12:38.713Z,12.90
2019-05-19T19:15:08.118Z,13.43
2019-05-19T19:17:37.456Z,13.00
2019-05-19T19:20:46.705Z,13.53
2019-05-19T19:23:16.084Z,13.20
2019-05-19T19:25:45.982Z,15.00
2019-05-19T19:28:15.332Z,14.30
2019-05-19T19:30:44.675Z,15.50
2019-05-19T19:33:14.007Z,14.40
2019-05-19T19:35:43.347Z,14.67
2019-05-19T19:38:12.699Z,15.17
2019-05-19T19:40:42.068Z,15.07
2019-05-19T19:46:45.584Z,13.60
2019-05-19T19:49:27.337Z,13.40
2019-05-19T19:51:56.689Z,13.20
2019-05-19T19:54:26.040Z,12.80
2019-05-19T19:56:55.385Z,12.43
2019-05-19T19:59:24.811Z,13.30
2019-05-19T20:01:54.270Z,13.27
2019-05-19T20:04:23.639Z,14.30
2019-05-19T20:06:52.930Z,14.07
2019-05-19T20:09:22.284Z,12.60
2019-05-19T20:11:51.622Z,12.63
2019-05-19T20:14:21.015Z,12.43
2019-05-19T20:16:50.365Z,13.10
2019-05-19T20:19:19.708Z,14.03
2019-05-19T20:21:49.075Z,13.30
2019-05-19T20:24:37.763Z,14.23
2019-05-19T20:27:07.479Z,15.30
2019-05-19T20:29:36.821Z,16.00
2019-05-19T20:32:06.167Z,15.80
2019-05-19T20:34:35.508Z,15.93
2019-05-19T20:37:17.017Z,17.13
2019-05-19T20:39:46.361Z,15.83
2019-05-19T20:42:34.798Z,15.10
2019-05-19T20:45:04.536Z,15.30
2019-05-19T20:47:33.847Z,13.90
2019-05-19T20:53:18.240Z,14.03
2019-05-19T20:55:47.591Z,13.73
2019-05-19T20:58:29.418Z,12.70
2019-05-19T21:00:58.773Z,13.10
2019-05-19T21:03:28.117Z,13.00
2019-05-19T21:06:10.091Z,12.17
2019-05-19T21:08:39.425Z,12.07
2019-05-19T21:11:08.775Z,11.90
2019-05-19T21:13:50.519Z,10.90
2019-05-19T21:16:19.861Z,11.57
2019-05-19T21:18:49.229Z,11.00
2019-05-19T21:21:18.584Z,12.27
2019-05-19T21:23:47.920Z,11.00
2019-05-19T21:26:17.492Z,12.17
2019-05-19T21:28:46.835Z,11.77
2019-05-19T21:31:16.188Z,12.30
2019-05-19T21:33:45.528Z,12.00
2019-05-19T21:36:34.252Z,12.73
2019-05-19T21:41:43.340Z,11.23
2019-05-19T21:44:12.683Z,10.23
2019-05-19T21:46:42.036Z,11.47
2019-05-19T21:49:11.682Z,10.90
2019-05-19T21:51:41.016Z,10.57
2019-05-19T21:54:10.686Z,12.13
2019-05-19T21:56:40.027Z,15.43
2019-05-19T21:59:09.365Z,15.83
2019-05-19T22:01:38.722Z,14.77
2019-05-19T22:04:20.714Z,15.80
2019-05-19T22:07:09.174Z,15.23
2019-05-19T22:09:57.869Z,15.20
2019-05-19T22:12:27.222Z,14.80
2019-05-19T22:14:56.561Z,15.70
2019-05-19T22:17:37.586Z,17.70
2019-05-19T22:23:29.905Z,13.80
2019-05-19T22:25:59.241Z,11.00
2019-05-19T22:28:34.775Z,9.70
2019-05-19T22:31:16.227Z,9.30
2019-05-19T22:33:57.684Z,9.47
2019-05-19T22:36:27.019Z,10.13
2019-05-19T22:38:56.367Z,11.27
2019-05-19T22:41:38.193Z,10.03
2019-05-19T22:44:07.538Z,10.07
2019-05-19T22:46:56.230Z,9.40
2019-05-19T22:49:25.559Z,9.90
2019-05-19T22:51:54.889Z,8.90
2019-05-19T22:54:24.232Z,9.37
2019-05-19T22:56:53.562Z,9.73
2019-05-19T22:59:22.914Z,10.33
2019-05-19T23:01:52.387Z,10.30
2019-05-19T23:04:21.741Z,10.90
2019-05-19T23:06:51.092Z,10.50
2019-05-19T23:09:32.358Z,9.87
2019-05-19T23:12:13.944Z,9.83
2019-05-19T23:14:43.277Z,9.47
2019-05-19T23:17:12.613Z,8.90
2019-05-19T23:19:41.957Z,10.20
2019-05-19T23:22:11.296Z,10.00
2019-05-19T23:24:40.645Z,10.27
2019-05-19T23:27:09.982Z,9.50
2019-05-19T23:29:44.747Z,9.77
2019-05-19T23:32:14.423Z,9.80
2019-05-19T23:34:43.757Z,8.93
2019-05-19T23:37:13.108Z,9.57
2019-05-19T23:39:42.677Z,9.97
2019-05-19T23:42:12.021Z,9.77
2019-05-19T23:44:41.373Z,9.77
2019-05-19T23:47:10.700Z,8.10
2019-05-19T23:49:40.047Z,9.33
2019-05-19T23:52:09.371Z,7.47
2019-05-19T23:54:50.354Z,7.07
2019-05-19T23:57:19.683Z,7.87
2019-05-19T23:59:49.015Z,7.93
